Time;durP1;ratioP1;P1;durP2;ratioP2;P2;SDS_P1;SDS_P2;PMS_P1;PMS_P2;Temp;Humidity;BMP_temperature;BMP_pressure;BME280_temperature;BME280_humidity;BME280_pressure;Samples;Min_cycle;Max_cycle;Signal;HPM_P1;HPM_P2
2022/07/26 00:01:30;;;;;;;15.80;5.28;;;;;;;;;;5083116;28;20147;-68
2022/07/26 00:04:01;;;;;;;14.73;4.63;;;;;;;;;;5068786;28;20156;-67
2022/07/26 00:06:31;;;;;;;15.18;4.45;;;;;;;;;;5012257;28;20052;-67
2022/07/26 00:09:02;;;;;;;18.02;4.40;;;;;;;;;;5028604;28;20049;-67
2022/07/26 00:11:34;;;;;;;14.48;4.90;;;;;;;;;;5029115;28;20057;-67
2022/07/26 00:14:08;;;;;;;10.95;4.68;;;;;;;;;;5028646;28;20062;-67
2022/07/26 00:16:43;;;;;;;13.90;4.70;;;;;;;;;;5028842;28;20054;-65
2022/07/26 00:19:14;;;;;;;13.93;5.97;;;;;;;;;;5026598;28;20417;-68
2022/07/26 00:21:45;;;;;;;15.43;5.43;;;;;;;;;;4988892;28;20050;-66
2022/07/26 00:24:16;;;;;;;11.00;4.78;;;;;;;;;;4989582;28;20054;-67
2022/07/26 00:26:46;;;;;;;13.30;4.82;;;;;;;;;;4989573;28;20054;-67
2022/07/26 00:29:16;;;;;;;13.93;4.72;;;;;;;;;;4989444;28;20054;-67
2022/07/26 00:31:46;;;;;;;14.48;4.35;;;;;;;;;;4973742;28;20062;-67
2022/07/26 00:34:17;;;;;;;10.98;4.72;;;;;;;;;;4992221;28;20057;-67
2022/07/26 00:36:47;;;;;;;9.73;4.75;;;;;;;;;;4991533;28;20502;-67
2022/07/26 00:39:18;;;;;;;11.55;4.80;;;;;;;;;;4990991;28;20062;-67
2022/07/26 00:41:49;;;;;;;9.07;4.35;;;;;;;;;;4992638;28;20046;-67
2022/07/26 00:44:23;;;;;;;14.38;4.57;;;;;;;;;;5003810;28;20065;-67
2022/07/26 00:46:56;;;;;;;15.57;4.85;;;;;;;;;;4937752;28;20031;-66
2022/07/26 00:49:29;;;;;;;11.05;4.95;;;;;;;;;;4974064;28;20059;-67
2022/07/26 00:52:05;;;;;;;12.43;4.65;;;;;;;;;;4943685;28;20559;-67
2022/07/26 00:54:37;;;;;;;12.50;4.55;;;;;;;;;;4943523;28;20055;-67
2022/07/26 00:57:08;;;;;;;12.15;6.57;;;;;;;;;;4918537;29;20405;-66
2022/07/26 00:59:39;;;;;;;12.80;4.90;;;;;;;;;;4881701;29;20064;-66
2022/07/26 01:02:10;;;;;;;13.57;5.72;;;;;;;;;;4859452;29;20057;-67
2022/07/26 01:04:43;;;;;;;12.80;5.30;;;;;;;;;;4874658;29;20056;-67
2022/07/26 01:07:14;;;;;;;19.50;5.13;;;;;;;;;;4881834;29;20067;-68
2022/07/26 01:09:45;;;;;;;13.10;4.93;;;;;;;;;;4934640;29;20059;-67
2022/07/26 01:12:15;;;;;;;9.63;5.10;;;;;;;;;;4934596;29;20068;-68
2022/07/26 01:14:46;;;;;;;11.43;4.88;;;;;;;;;;4934817;29;20064;-67
2022/07/26 01:17:16;;;;;;;14.30;4.82;;;;;;;;;;4880964;29;20063;-67
2022/07/26 01:19:47;;;;;;;14.70;5.25;;;;;;;;;;4897070;29;20067;-68
2022/07/26 01:22:17;;;;;;;14.18;5.15;;;;;;;;;;4909008;29;20063;-68
2022/07/26 01:24:47;;;;;;;11.50;4.25;;;;;;;;;;4916094;29;20060;-68
2022/07/26 01:27:18;;;;;;;12.55;5.18;;;;;;;;;;4934960;29;20055;-68
2022/07/26 01:29:50;;;;;;;18.58;5.05;;;;;;;;;;4934530;29;20560;-67
2022/07/26 01:32:21;;;;;;;10.98;4.65;;;;;;;;;;4976236;28;20053;-67
2022/07/26 01:34:52;;;;;;;12.40;5.38;;;;;;;;;;5002442;28;20050;-68
2022/07/26 01:37:23;;;;;;;11.35;5.45;;;;;;;;;;5012173;28;20054;-68
2022/07/26 01:39:56;;;;;;;14.90;5.25;;;;;;;;;;5011837;28;20062;-69
2022/07/26 01:42:27;;;;;;;13.20;5.47;;;;;;;;;;5012212;28;20057;-68
2022/07/26 01:44:58;;;;;;;15.57;5.93;;;;;;;;;;4959413;28;20059;-69
2022/07/26 01:47:28;;;;;;;19.08;6.47;;;;;;;;;;4973004;28;20061;-69
2022/07/26 01:49:59;;;;;;;15.90;6.10;;;;;;;;;;4988901;28;20046;-68
2022/07/26 01:52:29;;;;;;;18.88;6.90;;;;;;;;;;4972975;28;20059;-69
2022/07/26 01:54:59;;;;;;;14.05;6.35;;;;;;;;;;4994162;28;20057;-69
2022/07/26 01:57:29;;;;;;;15.55;6.30;;;;;;;;;;4979963;28;20710;-69
2022/07/26 02:00:00;;;;;;;15.50;7.45;;;;;;;;;;4999409;28;20446;-71
2022/07/26 02:02:34;;;;;;;19.77;5.80;;;;;;;;;;5051871;28;20049;-69
2022/07/26 02:05:06;;;;;;;18.20;6.25;;;;;;;;;;5051256;28;20045;-69
2022/07/26 02:07:42;;;;;;;15.05;6.55;;;;;;;;;;5051902;28;20068;-68
2022/07/26 02:10:13;;;;;;;16.17;5.70;;;;;;;;;;5051438;28;20067;-69
2022/07/26 02:12:45;;;;;;;;;;;;;;;;;;5059756;28;20541;-69
2022/07/26 02:15:16;;;;;;;14.80;6.03;;;;;;;;;;5091319;28;19927;-68
2022/07/26 02:17:46;;;;;;;18.92;6.43;;;;;;;;;;5091593;28;20044;-68
2022/07/26 02:20:16;;;;;;;17.63;6.45;;;;;;;;;;5070653;28;20051;-69
2022/07/26 02:22:47;;;;;;;13.90;6.32;;;;;;;;;;5071184;28;20116;-71
2022/07/26 02:25:18;;;;;;;15.55;7.05;;;;;;;;;;5071281;28;20704;-68
2022/07/26 02:27:48;;;;;;;12.85;5.75;;;;;;;;;;5021971;28;20552;-67
2022/07/26 02:30:19;;;;;;;16.48;6.30;;;;;;;;;;5054461;28;20056;-69
2022/07/26 02:32:50;;;;;;;16.02;6.50;;;;;;;;;;5070652;28;20045;-68
2022/07/26 02:35:21;;;;;;;15.10;6.72;;;;;;;;;;5070754;28;20056;-68
2022/07/26 02:37:52;;;;;;;22.42;6.05;;;;;;;;;;5054371;28;20516;-68
2022/07/26 02:40:22;;;;;;;15.48;6.18;;;;;;;;;;5070814;28;20040;-68
2022/07/26 02:42:52;;;;;;;15.70;6.63;;;;;;;;;;5071004;28;20512;-68
2022/07/26 02:45:24;;;;;;;17.00;7.25;;;;;;;;;;5037597;28;20412;-68
2022/07/26 02:47:55;;;;;;;15.35;7.15;;;;;;;;;;5070957;28;20420;-68
2022/07/26 02:50:26;;;;;;;15.10;6.13;;;;;;;;;;5090515;28;20048;-68
2022/07/26 02:52:58;;;;;;;11.93;6.40;;;;;;;;;;5024895;28;20056;-67
2022/07/26 02:55:28;;;;;;;19.77;6.95;;;;;;;;;;5050019;28;20049;-68
2022/07/26 02:57:59;;;;;;;13.90;6.10;;;;;;;;;;5007311;28;20050;-70
2022/07/26 03:00:29;;;;;;;16.92;6.22;;;;;;;;;;5049843;28;20049;-68
2022/07/26 03:03:00;;;;;;;15.10;5.70;;;;;;;;;;5050457;28;20521;-67
2022/07/26 03:05:31;;;;;;;15.48;6.00;;;;;;;;;;5032585;28;20067;-68
2022/07/26 03:08:01;;;;;;;13.32;6.05;;;;;;;;;;5050113;28;20061;-67
2022/07/26 03:10:32;;;;;;;22.23;6.65;;;;;;;;;;5050007;28;20064;-67
2022/07/26 03:13:03;;;;;;;16.48;6.90;;;;;;;;;;5033931;28;20064;-68
2022/07/26 03:15:33;;;;;;;14.88;5.80;;;;;;;;;;5050480;28;20052;-67
2022/07/26 03:18:04;;;;;;;15.60;6.32;;;;;;;;;;5030848;28;20053;-67
2022/07/26 03:20:34;;;;;;;13.43;6.03;;;;;;;;;;5030009;28;20061;-68
2022/07/26 03:23:05;;;;;;;17.15;7.65;;;;;;;;;;5029838;28;20426;-69
2022/07/26 03:25:36;;;;;;;15.77;6.68;;;;;;;;;;5030019;28;20061;-68
2022/07/26 03:28:06;;;;;;;16.88;6.45;;;;;;;;;;5039687;28;20061;-67
2022/07/26 03:30:36;;;;;;;13.63;5.97;;;;;;;;;;5009760;28;20045;-67
2022/07/26 03:33:07;;;;;;;16.48;6.47;;;;;;;;;;4997373;28;20049;-67
2022/07/26 03:35:37;;;;;;;14.38;6.25;;;;;;;;;;5049702;28;20117;-67
2022/07/26 03:38:07;;;;;;;12.98;7.00;;;;;;;;;;5029559;28;20410;-67
2022/07/26 03:40:38;;;;;;;15.60;7.20;;;;;;;;;;5029987;28;20083;-66
2022/07/26 03:43:08;;;;;;;17.25;6.20;;;;;;;;;;5039499;28;20079;-68
2022/07/26 03:45:38;;;;;;;14.38;5.85;;;;;;;;;;5049622;28;20053;-67
2022/07/26 03:48:08;;;;;;;17.15;6.13;;;;;;;;;;5029229;28;20049;-68
2022/07/26 03:50:41;;;;;;;17.55;6.50;;;;;;;;;;5029493;28;20057;-67
2022/07/26 03:53:12;;;;;;;11.88;6.55;;;;;;;;;;5029509;28;20054;-67
2022/07/26 03:58:30;;;;;;;15.00;6.18;;;;;;;;;;5029538;28;20053;-67
2022/07/26 04:01:01;;;;;;;16.40;6.30;;;;;;;;;;4989674;28;20058;-67
2022/07/26 04:03:31;;;;;;;15.18;6.63;;;;;;;;;;4990028;28;20065;-67
2022/07/26 04:06:02;;;;;;;16.92;7.10;;;;;;;;;;4989733;28;20065;-68
2022/07/26 04:08:32;;;;;;;13.27;6.50;;;;;;;;;;4962921;28;20058;-68
2022/07/26 04:11:03;;;;;;;18.42;7.18;;;;;;;;;;4970489;28;20439;-71
2022/07/26 04:13:34;;;;;;;15.60;5.72;;;;;;;;;;4939326;28;20055;-67
2022/07/26 04:16:04;;;;;;;11.07;5.70;;;;;;;;;;4978706;28;20054;-67
2022/07/26 04:18:35;;;;;;;19.35;5.85;;;;;;;;;;4970029;28;20098;-67
2022/07/26 04:21:06;;;;;;;17.25;7.47;;;;;;;;;;4970427;28;20407;-67
2022/07/26 04:23:36;;;;;;;15.45;5.78;;;;;;;;;;4938453;28;20057;-67
2022/07/26 04:26:06;;;;;;;11.52;5.15;;;;;;;;;;4995183;28;20054;-68
2022/07/26 04:28:37;;;;;;;16.63;6.90;;;;;;;;;;5009540;28;20398;-68
2022/07/26 04:31:08;;;;;;;15.65;6.85;;;;;;;;;;5008957;28;20061;-68
2022/07/26 04:33:38;;;;;;;12.43;5.65;;;;;;;;;;4992821;28;20054;-67
2022/07/26 04:36:09;;;;;;;14.18;6.22;;;;;;;;;;4993429;28;20053;-67
2022/07/26 04:38:40;;;;;;;11.45;5.80;;;;;;;;;;4950230;28;20051;-68
2022/07/26 04:41:10;;;;;;;13.40;5.88;;;;;;;;;;4950329;29;20055;-69
2022/07/26 04:43:41;;;;;;;11.68;6.03;;;;;;;;;;4918485;29;20074;-68
2022/07/26 04:46:10;;;;;;;12.38;5.55;;;;;;;;;;4970104;28;20098;-68
2022/07/26 04:48:41;;;;;;;13.25;5.53;;;;;;;;;;4985587;28;20047;-66
2022/07/26 04:51:12;;;;;;;14.05;5.88;;;;;;;;;;4969742;28;20051;-67
2022/07/26 04:53:42;;;;;;;12.85;6.50;;;;;;;;;;4937813;28;20055;-67
2022/07/26 04:56:13;;;;;;;13.80;6.15;;;;;;;;;;4979294;28;20062;-67
2022/07/26 04:58:43;;;;;;;15.25;5.72;;;;;;;;;;4938165;28;20057;-68
2022/07/26 05:01:14;;;;;;;13.70;5.55;;;;;;;;;;4969730;28;20059;-69
2022/07/26 05:03:44;;;;;;;16.98;6.18;;;;;;;;;;4969915;28;20062;-67
2022/07/26 05:06:15;;;;;;;14.10;5.57;;;;;;;;;;4969594;28;20054;-67
2022/07/26 05:08:45;;;;;;;11.90;5.88;;;;;;;;;;4946507;28;20551;-68
2022/07/26 05:11:16;;;;;;;11.45;5.53;;;;;;;;;;4931644;29;20067;-67
2022/07/26 05:13:46;;;;;;;12.65;5.75;;;;;;;;;;4931325;29;20066;-68
2022/07/26 05:16:16;;;;;;;17.58;6.38;;;;;;;;;;4949872;28;20055;-67
2022/07/26 05:18:47;;;;;;;14.63;6.55;;;;;;;;;;4969288;28;20507;-69
2022/07/26 05:21:18;;;;;;;16.63;5.75;;;;;;;;;;4978075;28;20049;-67
2022/07/26 05:23:48;;;;;;;12.85;5.65;;;;;;;;;;5008268;28;20177;-68
2022/07/26 05:26:18;;;;;;;11.85;5.90;;;;;;;;;;5017988;28;20497;-67
2022/07/26 05:28:48;;;;;;;13.60;7.07;;;;;;;;;;5028241;28;20417;-67
2022/07/26 05:31:19;;;;;;;13.70;5.13;;;;;;;;;;5008540;28;20054;-67
2022/07/26 05:33:50;;;;;;;11.88;5.65;;;;;;;;;;4955977;28;20061;-67
2022/07/26 05:36:20;;;;;;;17.23;6.53;;;;;;;;;;4979740;28;20058;-67
2022/07/26 05:38:51;;;;;;;12.13;5.72;;;;;;;;;;4937249;28;20063;-68
2022/07/26 05:41:22;;;;;;;11.48;6.28;;;;;;;;;;4921445;28;20059;-69
2022/07/26 05:43:52;;;;;;;16.98;6.03;;;;;;;;;;4972423;28;20058;-68
2022/07/26 05:46:22;;;;;;;13.13;5.45;;;;;;;;;;4972948;28;20069;-67
2022/07/26 05:48:53;;;;;;;14.80;5.63;;;;;;;;;;4930740;29;20059;-68
2022/07/26 05:51:23;;;;;;;12.98;5.75;;;;;;;;;;4913372;29;20059;-67
2022/07/26 05:53:54;;;;;;;10.52;5.38;;;;;;;;;;4900102;29;20060;-67
2022/07/26 05:56:25;;;;;;;11.25;5.65;;;;;;;;;;4915222;29;20056;-67
2022/07/26 05:58:55;;;;;;;10.32;4.95;;;;;;;;;;4924496;29;20052;-67
2022/07/26 06:01:25;;;;;;;11.15;5.07;;;;;;;;;;4909307;29;20064;-67
2022/07/26 06:03:56;;;;;;;12.93;5.47;;;;;;;;;;4911446;29;20061;-67
2022/07/26 06:06:27;;;;;;;12.63;5.35;;;;;;;;;;4880301;29;20080;-68
2022/07/26 06:08:57;;;;;;;11.18;6.45;;;;;;;;;;4914723;29;20088;-68
2022/07/26 06:11:27;;;;;;;12.15;5.60;;;;;;;;;;4909098;29;20064;-66
2022/07/26 06:13:58;;;;;;;12.95;5.82;;;;;;;;;;4933861;29;20056;-67
2022/07/26 06:16:28;;;;;;;13.45;5.07;;;;;;;;;;4933975;29;20070;-67
2022/07/26 06:18:58;;;;;;;12.20;7.45;;;;;;;;;;4933945;29;20439;-68
2022/07/26 06:21:29;;;;;;;15.93;5.72;;;;;;;;;;4943133;29;20052;-67
2022/07/26 06:24:00;;;;;;;10.13;5.20;;;;;;;;;;4914429;29;20552;-68
2022/07/26 06:26:30;;;;;;;13.50;5.63;;;;;;;;;;4942599;28;20062;-68
2022/07/26 06:29:00;;;;;;;9.85;5.03;;;;;;;;;;4972120;28;20051;-68
2022/07/26 06:31:31;;;;;;;16.73;5.20;;;;;;;;;;4972275;28;20043;-68
2022/07/26 06:34:01;;;;;;;11.35;5.00;;;;;;;;;;4949063;28;20049;-68
2022/07/26 06:36:32;;;;;;;9.23;4.88;;;;;;;;;;4975302;28;20054;-68
2022/07/26 06:39:02;;;;;;;14.82;5.68;;;;;;;;;;5001011;28;20418;-68
2022/07/26 06:41:33;;;;;;;14.00;5.47;;;;;;;;;;5011130;28;20062;-68
2022/07/26 06:44:03;;;;;;;12.85;5.20;;;;;;;;;;4971779;28;20062;-67
2022/07/26 06:46:35;;;;;;;16.58;5.97;;;;;;;;;;4991582;28;20460;-69
2022/07/26 06:49:05;;;;;;;14.35;5.72;;;;;;;;;;4991003;28;20415;-69
2022/07/26 06:51:36;;;;;;;10.30;4.72;;;;;;;;;;4991492;28;20054;-69
2022/07/26 06:54:06;;;;;;;16.95;4.97;;;;;;;;;;4971392;28;20047;-68
2022/07/26 06:56:37;;;;;;;14.32;5.03;;;;;;;;;;4971882;28;20055;-68
2022/07/26 06:59:07;;;;;;;15.23;5.30;;;;;;;;;;4971692;28;20070;-68
2022/07/26 07:01:38;;;;;;;20.13;5.28;;;;;;;;;;4990615;28;20062;-68
2022/07/26 07:04:29;;;;;;;10.15;5.80;;;;;;;;;;4983469;28;20391;-68
2022/07/26 07:07:07;;;;;;;14.60;5.53;;;;;;;;;;4971192;28;20450;-68
2022/07/26 07:09:37;;;;;;;11.73;5.28;;;;;;;;;;4971275;28;20067;-68
2022/07/26 07:12:08;;;;;;;10.30;4.68;;;;;;;;;;4971515;28;20522;-68
2022/07/26 07:14:39;;;;;;;13.40;5.28;;;;;;;;;;4971255;28;20066;-67
2022/07/26 07:17:10;;;;;;;12.32;5.25;;;;;;;;;;4971398;28;20050;-68
2022/07/26 07:19:48;;;;;;;10.20;4.93;;;;;;;;;;4971120;28;20099;-68
2022/07/26 07:22:18;;;;;;;12.07;4.90;;;;;;;;;;5000659;28;20058;-68
2022/07/26 07:24:48;;;;;;;14.70;5.05;;;;;;;;;;5010079;28;20057;-68
2022/07/26 07:27:19;;;;;;;11.70;4.68;;;;;;;;;;4994406;28;20057;-68
2022/07/26 07:29:49;;;;;;;10.98;4.95;;;;;;;;;;5010100;28;20054;-68
2022/07/26 07:32:19;;;;;;;15.23;4.47;;;;;;;;;;5024538;28;20041;-68
2022/07/26 07:34:52;;;;;;;8.88;4.32;;;;;;;;;;5029785;28;20057;-67
2022/07/26 07:37:23;;;;;;;11.35;5.30;;;;;;;;;;5030021;28;20054;-68
2022/07/26 07:39:54;;;;;;;15.32;5.10;;;;;;;;;;5014119;28;20045;-67
2022/07/26 07:42:24;;;;;;;12.60;4.80;;;;;;;;;;5042407;28;20084;-68
2022/07/26 07:44:54;;;;;;;13.93;4.93;;;;;;;;;;5019767;28;20053;-67
2022/07/26 07:47:25;;;;;;;14.95;4.88;;;;;;;;;;5053732;28;20075;-68
2022/07/26 07:49:55;;;;;;;10.05;4.53;;;;;;;;;;5069322;28;20082;-67
2022/07/26 07:52:25;;;;;;;12.05;5.93;;;;;;;;;;5053201;28;20451;-68
2022/07/26 07:54:55;;;;;;;11.77;4.70;;;;;;;;;;5012513;28;20053;-68
2022/07/26 07:57:46;;;;;;;11.77;4.93;;;;;;;;;;5029370;28;20057;-69
2022/07/26 08:00:18;;;;;;;9.77;4.13;;;;;;;;;;5029371;28;20072;-68
2022/07/26 08:03:01;;;;;;;12.32;4.43;;;;;;;;;;5029915;28;20071;-67
2022/07/26 08:05:31;;;;;;;10.10;4.18;;;;;;;;;;5089279;28;20044;-68
2022/07/26 08:08:03;;;;;;;11.05;4.45;;;;;;;;;;5072947;28;20056;-68
2022/07/26 08:10:36;;;;;;;10.27;4.60;;;;;;;;;;5089399;28;20048;-68
2022/07/26 08:13:17;;;;;;;13.32;5.00;;;;;;;;;;4999451;28;20053;-68
2022/07/26 08:15:54;;;;;;;10.20;4.38;;;;;;;;;;5049045;28;20072;-68
2022/07/26 08:18:27;;;;;;;11.85;4.80;;;;;;;;;;5049077;28;20060;-68
2022/07/26 08:20:58;;;;;;;11.52;5.18;;;;;;;;;;5049412;28;20120;-69
2022/07/26 08:23:29;;;;;;;11.57;4.30;;;;;;;;;;5031858;28;20056;-68
2022/07/26 08:26:00;;;;;;;14.52;4.75;;;;;;;;;;5015691;28;20056;-69
2022/07/26 08:28:35;;;;;;;10.85;4.70;;;;;;;;;;5048641;28;20045;-69
2022/07/26 08:31:18;;;;;;;15.93;4.97;;;;;;;;;;5028769;28;20052;-68
2022/07/26 08:33:49;;;;;;;10.65;4.57;;;;;;;;;;5028680;28;20053;-68
2022/07/26 08:36:20;;;;;;;12.30;4.93;;;;;;;;;;4995812;28;20049;-70
2022/07/26 08:38:51;;;;;;;9.82;4.85;;;;;;;;;;5028303;28;20053;-69
2022/07/26 08:41:22;;;;;;;13.32;5.03;;;;;;;;;;5028412;28;20524;-68
2022/07/26 08:43:52;;;;;;;10.13;4.88;;;;;;;;;;5028681;28;20065;-68
2022/07/26 08:46:24;;;;;;;10.38;4.72;;;;;;;;;;5012489;28;20057;-68
2022/07/26 08:48:56;;;;;;;12.52;4.50;;;;;;;;;;4995738;28;20528;-70
2022/07/26 08:51:26;;;;;;;10.13;4.90;;;;;;;;;;4992789;28;20051;-69
2022/07/26 08:54:00;;;;;;;11.07;5.10;;;;;;;;;;4973360;28;20062;-68
2022/07/26 08:56:36;;;;;;;15.93;4.80;;;;;;;;;;4988919;28;20054;-69
2022/07/26 08:59:16;;;;;;;9.20;4.72;;;;;;;;;;4989131;28;20059;-68
2022/07/26 09:01:59;;;;;;;11.95;4.78;;;;;;;;;;4989393;28;20082;-68
2022/07/26 09:04:38;;;;;;;10.30;4.90;;;;;;;;;;4969431;28;20103;-68
2022/07/26 09:07:15;;;;;;;13.13;4.57;;;;;;;;;;4969520;28;20047;-69
2022/07/26 09:09:56;;;;;;;12.20;4.95;;;;;;;;;;4987852;28;20102;-69
2022/07/26 09:12:28;;;;;;;10.45;4.75;;;;;;;;;;4988910;28;20058;-69
2022/07/26 09:15:01;;;;;;;10.73;4.45;;;;;;;;;;4969377;28;20051;-69
2022/07/26 09:17:48;;;;;;;10.43;5.05;;;;;;;;;;4967979;28;20050;-69
2022/07/26 09:20:22;;;;;;;8.73;4.28;;;;;;;;;;4969653;28;20063;-68
2022/07/26 09:23:10;;;;;;;10.20;4.90;;;;;;;;;;4899254;29;20055;-68
2022/07/26 09:25:44;;;;;;;10.82;4.70;;;;;;;;;;4932000;29;20052;-69
2022/07/26 09:28:27;;;;;;;10.27;4.47;;;;;;;;;;4912219;28;20065;-68
2022/07/26 09:31:01;;;;;;;16.92;5.00;;;;;;;;;;4975588;28;20049;-69
2022/07/26 09:33:49;;;;;;;11.30;4.75;;;;;;;;;;4989754;28;20546;-71
2022/07/26 09:36:21;;;;;;;12.88;5.55;;;;;;;;;;4992647;28;20426;-68
2022/07/26 09:38:54;;;;;;;10.23;5.47;;;;;;;;;;4953735;29;20411;-69
2022/07/26 09:41:34;;;;;;;9.48;4.85;;;;;;;;;;4940030;28;20066;-68
2022/07/26 09:44:18;;;;;;;10.80;4.72;;;;;;;;;;4973107;28;20047;-69
2022/07/26 09:46:57;;;;;;;9.32;4.53;;;;;;;;;;4973221;28;20058;-69
2022/07/26 09:49:29;;;;;;;9.80;4.47;;;;;;;;;;4973040;28;20051;-68
2022/07/26 09:52:17;;;;;;;9.77;4.50;;;;;;;;;;4965235;28;20065;-68
2022/07/26 09:54:48;;;;;;;13.70;4.97;;;;;;;;;;5023147;28;20053;-68
2022/07/26 09:57:21;;;;;;;8.82;4.22;;;;;;;;;;5051380;28;20052;-68
2022/07/26 09:59:52;;;;;;;9.75;4.78;;;;;;;;;;5031666;28;20057;-69
2022/07/26 10:02:23;;;;;;;8.82;4.45;;;;;;;;;;5011474;28;20053;-69
2022/07/26 10:04:53;;;;;;;15.38;4.60;;;;;;;;;;4991667;28;20049;-69
2022/07/26 10:07:24;;;;;;;12.98;4.95;;;;;;;;;;4992281;28;20069;-69
2022/07/26 10:10:05;;;;;;;10.35;4.78;;;;;;;;;;4991636;28;20061;-69
2022/07/26 10:12:36;;;;;;;12.13;5.75;;;;;;;;;;5008167;28;20074;-69
2022/07/26 10:15:20;;;;;;;13.48;6.10;;;;;;;;;;4992016;28;20062;-69
2022/07/26 10:17:51;;;;;;;;;;;;;;;;;;5012362;28;20062;-70
2022/07/26 10:20:55;;;;;;;13.60;4.43;;;;;;;;;;4959353;28;19921;-70
2022/07/26 10:23:36;;;;;;;11.95;4.93;;;;;;;;;;4933834;29;20060;-69
2022/07/26 10:26:10;;;;;;;9.50;4.82;;;;;;;;;;4902391;29;20063;-71
2022/07/26 10:28:41;;;;;;;10.43;4.88;;;;;;;;;;4935955;29;20060;-70
2022/07/26 10:31:30;;;;;;;11.05;4.93;;;;;;;;;;4937177;29;20680;-69
2022/07/26 10:34:01;;;;;;;13.45;4.85;;;;;;;;;;4952070;29;20492;-69
2022/07/26 10:36:35;;;;;;;11.27;4.60;;;;;;;;;;4952691;28;20118;-69
2022/07/26 10:39:15;;;;;;;11.38;4.90;;;;;;;;;;4950830;29;20055;-68
2022/07/26 10:41:56;;;;;;;13.98;5.00;;;;;;;;;;4921093;29;20062;-69
2022/07/26 10:44:32;;;;;;;10.35;4.75;;;;;;;;;;4952888;29;20059;-69
2022/07/26 10:47:06;;;;;;;11.70;5.05;;;;;;;;;;4933398;29;20055;-68
2022/07/26 10:49:42;;;;;;;14.05;5.50;;;;;;;;;;4952493;29;20059;-69
2022/07/26 10:52:15;;;;;;;10.70;4.93;;;;;;;;;;4952401;29;20063;-68
2022/07/26 10:55:03;;;;;;;11.93;4.97;;;;;;;;;;4952475;29;20059;-69
2022/07/26 10:57:39;;;;;;;17.33;6.22;;;;;;;;;;4920433;29;20082;-68
2022/07/26 11:00:16;;;;;;;10.77;4.53;;;;;;;;;;4932046;28;20054;-69
2022/07/26 11:02:49;;;;;;;18.05;5.40;;;;;;;;;;4939466;28;20059;-69
2022/07/26 11:05:21;;;;;;;10.35;5.28;;;;;;;;;;4992749;28;20054;-70
2022/07/26 11:07:52;;;;;;;13.88;5.25;;;;;;;;;;5010428;28;20204;-69
2022/07/26 11:10:28;;;;;;;11.63;6.13;;;;;;;;;;4970980;28;20434;-68
2022/07/26 11:13:05;;;;;;;16.60;5.72;;;;;;;;;;4929940;28;20058;-69
2022/07/26 11:15:38;;;;;;;12.48;5.57;;;;;;;;;;4989222;28;20046;-71
2022/07/26 11:18:26;;;;;;;12.32;5.45;;;;;;;;;;4989818;28;20507;-69
2022/07/26 11:21:09;;;;;;;18.33;5.60;;;;;;;;;;4990275;28;20050;-70
2022/07/26 11:23:45;;;;;;;11.90;5.43;;;;;;;;;;4990278;28;20062;-70
2022/07/26 11:26:20;;;;;;;15.50;6.13;;;;;;;;;;5019669;28;20041;-72
2022/07/26 11:28:56;;;;;;;16.05;6.00;;;;;;;;;;5021450;28;20061;-70
2022/07/26 11:31:36;;;;;;;19.60;5.18;;;;;;;;;;4993101;28;20053;-69
2022/07/26 11:34:31;;;;;;;14.18;5.60;;;;;;;;;;5029654;28;20490;-69
2022/07/26 11:37:05;;;;;;;14.10;4.95;;;;;;;;;;5029601;28;20635;-69
2022/07/26 11:39:36;;;;;;;18.05;6.03;;;;;;;;;;4970699;28;20050;-69
2022/07/26 11:42:08;;;;;;;14.10;5.80;;;;;;;;;;4970787;28;20063;-68
2022/07/26 11:44:44;;;;;;;17.95;7.60;;;;;;;;;;4971100;28;20516;-68
2022/07/26 11:47:20;;;;;;;19.85;6.60;;;;;;;;;;4978128;28;20516;-69
2022/07/26 11:49:54;;;;;;;19.92;7.00;;;;;;;;;;4989609;28;20050;-69
2022/07/26 11:52:45;;;;;;;17.38;7.53;;;;;;;;;;4989905;28;20055;-68
2022/07/26 11:55:28;;;;;;;18.33;7.50;;;;;;;;;;4989748;28;20042;-68
2022/07/26 11:58:05;;;;;;;17.27;9.02;;;;;;;;;;4997915;28;20391;-68
2022/07/26 12:00:36;;;;;;;20.17;7.38;;;;;;;;;;5028991;28;20569;-68
2022/07/26 12:03:06;;;;;;;18.75;7.00;;;;;;;;;;4992755;28;20097;-68
2022/07/26 12:05:37;;;;;;;18.17;7.25;;;;;;;;;;5012010;28;20087;-71
2022/07/26 12:08:08;;;;;;;21.35;7.45;;;;;;;;;;5029451;28;20057;-67
2022/07/26 12:10:39;;;;;;;18.40;10.32;;;;;;;;;;4996187;28;20414;-68
2022/07/26 12:13:14;;;;;;;20.08;10.52;;;;;;;;;;5029396;28;20235;-67
2022/07/26 12:15:51;;;;;;;23.45;9.38;;;;;;;;;;5008943;28;20458;-68
2022/07/26 12:18:34;;;;;;;19.58;7.68;;;;;;;;;;5028311;28;20168;-67
2022/07/26 12:21:07;;;;;;;18.52;7.28;;;;;;;;;;4989617;28;20058;-67
2022/07/26 12:23:49;;;;;;;14.32;7.30;;;;;;;;;;4974193;28;20093;-67
2022/07/26 12:26:26;;;;;;;16.02;7.05;;;;;;;;;;4989513;28;20062;-67
2022/07/26 12:29:23;;;;;;;16.40;7.35;;;;;;;;;;4989569;28;20062;-67
2022/07/26 12:32:01;;;;;;;18.90;7.93;;;;;;;;;;4989558;28;20061;-67
2022/07/26 12:34:37;;;;;;;17.58;7.68;;;;;;;;;;4976433;28;20059;-68
2022/07/26 12:37:10;;;;;;;18.83;7.68;;;;;;;;;;4970101;28;20046;-67
2022/07/26 12:39:40;;;;;;;;;;;;;;;;;;4938616;28;20062;-67
2022/07/26 12:42:32;;;;;;;14.90;7.13;;;;;;;;;;4989108;28;20052;-68
2022/07/26 12:45:06;;;;;;;19.77;7.57;;;;;;;;;;4950178;29;20063;-68
2022/07/26 12:47:42;;;;;;;15.50;9.02;;;;;;;;;;4958839;28;20430;-67
2022/07/26 12:50:14;;;;;;;16.52;7.25;;;;;;;;;;4969646;28;20058;-68
2022/07/26 12:52:46;;;;;;;15.98;6.85;;;;;;;;;;4965156;28;20510;-69
2022/07/26 12:55:20;;;;;;;17.23;8.13;;;;;;;;;;4950639;28;20058;-67
2022/07/26 12:57:50;;;;;;;15.18;7.57;;;;;;;;;;4966434;28;20070;-66
2022/07/26 13:00:25;;;;;;;20.85;7.45;;;;;;;;;;4965133;28;20070;-67
2022/07/26 13:02:58;;;;;;;19.88;7.30;;;;;;;;;;4973588;28;20058;-67
2022/07/26 13:05:30;;;;;;;14.43;7.32;;;;;;;;;;4973571;28;20046;-70
2022/07/26 13:08:00;;;;;;;14.68;7.18;;;;;;;;;;4989291;28;20059;-68
2022/07/26 13:10:31;;;;;;;13.32;7.25;;;;;;;;;;4992793;28;20479;-67
2022/07/26 13:13:05;;;;;;;19.15;6.75;;;;;;;;;;4993078;28;20058;-68
2022/07/26 13:15:35;;;;;;;14.43;6.13;;;;;;;;;;4992838;28;20046;-69
2022/07/26 13:18:07;;;;;;;14.50;8.57;;;;;;;;;;4976774;28;20418;-67
2022/07/26 13:20:38;;;;;;;17.85;9.10;;;;;;;;;;4960431;28;20055;-66
2022/07/26 13:23:11;;;;;;;15.45;6.10;;;;;;;;;;4989838;28;20054;-66
2022/07/26 13:25:49;;;;;;;18.02;9.38;;;;;;;;;;5012494;28;20069;-69
2022/07/26 13:28:24;;;;;;;16.92;9.43;;;;;;;;;;5012078;28;20053;-70
2022/07/26 13:31:07;;;;;;;14.18;8.20;;;;;;;;;;5031906;28;20042;-70
2022/07/26 13:33:43;;;;;;;11.23;6.97;;;;;;;;;;5031641;28;20045;-68
2022/07/26 13:36:18;;;;;;;;;;;;;;;;;;4999592;28;20061;-71
2022/07/26 13:38:48;;;;;;;12.50;6.10;;;;;;;;;;5051495;28;19928;-66
2022/07/26 13:41:18;;;;;;;12.77;6.75;;;;;;;;;;5018396;28;20054;-65
2022/07/26 13:43:50;;;;;;;14.55;7.38;;;;;;;;;;4944294;28;20057;-67
2022/07/26 13:46:20;;;;;;;11.35;6.35;;;;;;;;;;5011425;28;20502;-65
2022/07/26 13:48:51;;;;;;;12.80;6.40;;;;;;;;;;4972546;28;20050;-66
2022/07/26 13:54:23;;;;;;;11.90;5.35;;;;;;;;;;4940990;28;20108;-66
2022/07/26 13:56:54;;;;;;;12.02;5.53;;;;;;;;;;4956930;28;20059;-66
2022/07/26 13:59:26;;;;;;;13.70;5.88;;;;;;;;;;4940680;28;20055;-66
2022/07/26 14:01:57;;;;;;;11.20;5.43;;;;;;;;;;4972891;28;20047;-66
2022/07/26 14:04:28;;;;;;;11.23;5.72;;;;;;;;;;4952932;28;20511;-66
2022/07/26 14:06:59;;;;;;;14.32;6.40;;;;;;;;;;4952965;28;20063;-67
2022/07/26 14:09:31;;;;;;;15.05;5.40;;;;;;;;;;4953567;28;20058;-66
2022/07/26 14:12:02;;;;;;;12.63;5.53;;;;;;;;;;4943644;28;20090;-67
2022/07/26 14:14:33;;;;;;;12.73;6.03;;;;;;;;;;4957655;28;20059;-65
2022/07/26 14:17:04;;;;;;;12.13;5.47;;;;;;;;;;4972288;28;20066;-66
2022/07/26 14:19:37;;;;;;;10.35;6.38;;;;;;;;;;5003097;28;20421;-67
2022/07/26 14:22:15;;;;;;;19.05;9.93;;;;;;;;;;5010887;28;20049;-66
2022/07/26 14:24:52;;;;;;;11.48;6.18;;;;;;;;;;5006003;28;20060;-66
2022/07/26 14:27:23;;;;;;;9.82;5.10;;;;;;;;;;5011344;28;20690;-66
2022/07/26 14:29:54;;;;;;;10.48;5.25;;;;;;;;;;4978821;28;20058;-67
2022/07/26 14:32:26;;;;;;;10.38;5.30;;;;;;;;;;5011235;28;20069;-66
2022/07/26 14:34:59;;;;;;;9.25;5.10;;;;;;;;;;5019465;28;20501;-66
2022/07/26 14:37:40;;;;;;;13.18;6.25;;;;;;;;;;5014967;28;20421;-66
2022/07/26 14:40:21;;;;;;;10.13;5.28;;;;;;;;;;5014091;28;20057;-65
2022/07/26 14:43:01;;;;;;;9.50;4.82;;;;;;;;;;5013914;28;20663;-66
2022/07/26 14:45:40;;;;;;;7.07;4.13;;;;;;;;;;4999570;28;20064;-67
2022/07/26 14:48:17;;;;;;;9.13;4.20;;;;;;;;;;4971706;28;20046;-65
2022/07/26 14:51:09;;;;;;;9.57;5.15;;;;;;;;;;4933272;29;20440;-64
2022/07/26 14:53:41;;;;;;;7.68;4.70;;;;;;;;;;4933768;29;20060;-65
2022/07/26 14:56:11;;;;;;;;;;;;;;;;;;4933746;29;20063;-66
2022/07/26 14:58:42;;;;;;;8.95;4.70;;;;;;;;;;4917551;29;19923;-67
2022/07/26 15:01:12;;;;;;;10.30;4.95;;;;;;;;;;4932620;29;20067;-67
2022/07/26 15:03:43;;;;;;;10.48;5.00;;;;;;;;;;4917105;29;20060;-66
2022/07/26 15:06:13;;;;;;;9.52;4.80;;;;;;;;;;4886656;29;20433;-66
2022/07/26 15:08:44;;;;;;;10.43;5.15;;;;;;;;;;4905096;29;20436;-65
2022/07/26 15:11:15;;;;;;;9.32;4.32;;;;;;;;;;4894873;29;20059;-67
2022/07/26 15:13:45;;;;;;;10.20;4.22;;;;;;;;;;4895121;29;20064;-66